Aviation Digital Data Service (ADDS)

Output produced by METARs form (0917 UTC 28 March 2020)
found at http://aviationweather.gov/metar/data/
 
METAR text: KARR 280852Z AUTO 12008KT 6SM -RA BR OVC055 09/08 A2965 RMK AO2 LTG DSNT E AND W SLP040 P0005 60052 T00940083 58020
Conditions at: KARR (CHICAGO/AURORA , IL, US) observed 0852 UTC 28 March 2020
Temperature: 9.4°C (49°F)
Dewpoint: 8.3°C (47°F) [RH = 93%]
Pressure (altimeter): 29.65 inches Hg (1004.1 mb)
[Sea-level pressure: 1004.0 mb]
Winds: from the ESE (120 degrees) at 9 MPH (8 knots; 4.1 m/s)
Visibility: 6 miles (10 km)
Ceiling: 5500 feet AGL
Clouds: overcast cloud deck at 5500 feet AGL
Weather: -RA BR  (light rain, mist)